createdAt,value
2019-03-17T00:00:04.871Z,7.50
2019-03-17T00:02:32.704Z,4.57
2019-03-17T00:05:01.435Z,6.83
2019-03-17T00:07:29.295Z,7.87
2019-03-17T00:09:56.831Z,5.70
2019-03-17T00:12:24.446Z,5.83
2019-03-17T00:15:04.289Z,6.77
2019-03-17T00:17:21.305Z,6.17
2019-03-17T00:19:49.061Z,7.43
2019-03-17T00:22:17.686Z,4.67
2019-03-17T00:24:45.270Z,6.83
2019-03-17T00:27:12.685Z,9.77
2019-03-17T00:29:41.677Z,6.17
2019-03-17T00:32:09.637Z,4.30
2019-03-17T00:34:44.135Z,7.30
2019-03-17T00:37:06.852Z,8.57
2019-03-17T00:39:34.430Z,6.23
2019-03-17T00:42:03.367Z,3.57
2019-03-17T00:44:30.936Z,5.70
2019-03-17T00:46:58.517Z,9.80
2019-03-17T00:52:51.410Z,8.00
2019-03-17T00:55:19.036Z,4.43
2019-03-17T00:57:47.553Z,8.40
2019-03-17T01:00:15.129Z,6.57
2019-03-17T01:02:42.749Z,5.53
2019-03-17T01:05:10.497Z,7.37
2019-03-17T01:07:38.237Z,3.13
2019-03-17T01:10:05.822Z,6.70
2019-03-17T01:12:33.445Z,7.17
2019-03-17T01:15:00.929Z,4.13
2019-03-17T01:17:28.480Z,5.27
2019-03-17T01:19:56.181Z,5.10
2019-03-17T01:22:26.087Z,4.53
2019-03-17T01:24:54.020Z,4.07
2019-03-17T01:27:21.972Z,5.93
2019-03-17T01:29:49.834Z,6.90
2019-03-17T01:32:18.137Z,4.70
2019-03-17T01:34:45.761Z,6.43
2019-03-17T01:37:14.598Z,9.27
2019-03-17T01:39:42.224Z,7.60
2019-03-17T01:42:09.779Z,10.43
2019-03-17T01:44:39.191Z,5.87
2019-03-17T01:47:06.811Z,7.37
2019-03-17T01:49:35.774Z,9.47
2019-03-17T01:52:03.423Z,10.27
2019-03-17T01:54:31.012Z,5.27
2019-03-17T01:56:58.617Z,8.93
2019-03-17T01:59:27.413Z,7.67
2019-03-17T02:01:54.998Z,13.37
2019-03-17T02:04:22.590Z,6.63
2019-03-17T02:06:50.320Z,5.57
2019-03-17T02:09:18.249Z,10.23
2019-03-17T02:11:45.915Z,5.67
2019-03-17T02:14:16.654Z,8.67
2019-03-17T02:16:51.736Z,13.50
2019-03-17T02:19:19.312Z,8.93
2019-03-17T02:22:02.845Z,9.70
2019-03-17T02:24:50.979Z,10.00
2019-03-17T02:27:18.895Z,10.00
2019-03-17T02:29:46.470Z,9.73
2019-03-17T02:32:44.791Z,9.70
2019-03-17T02:35:13.493Z,5.70
2019-03-17T02:37:41.097Z,8.40
2019-03-17T02:40:09.012Z,4.97
2019-03-17T02:42:36.936Z,7.23
2019-03-17T02:45:04.994Z,7.20
2019-03-17T02:47:39.709Z,6.90
2019-03-17T02:50:07.528Z,8.87
2019-03-17T02:52:35.131Z,5.20
2019-03-17T02:55:02.725Z,8.63
2019-03-17T02:57:30.685Z,7.77
2019-03-17T02:59:58.171Z,9.30
2019-03-17T03:02:25.744Z,8.37
2019-03-17T03:04:53.238Z,8.50
2019-03-17T03:07:20.754Z,10.57
2019-03-17T03:09:48.653Z,8.60
2019-03-17T03:12:16.244Z,6.83
2019-03-17T03:14:43.850Z,8.03
2019-03-17T03:17:11.516Z,8.87
2019-03-17T03:19:39.130Z,5.03
2019-03-17T03:22:06.719Z,5.80
2019-03-17T03:24:34.459Z,6.60
2019-03-17T03:27:01.945Z,5.00
2019-03-17T03:29:29.595Z,4.07
2019-03-17T03:32:03.536Z,4.17
2019-03-17T03:34:31.933Z,4.40
2019-03-17T03:37:24.661Z,3.13
2019-03-17T03:40:02.477Z,8.33
2019-03-17T03:42:30.370Z,5.30
2019-03-17T03:44:58.296Z,5.23
2019-03-17T03:47:46.747Z,5.87
2019-03-17T03:50:14.681Z,6.47
2019-03-17T03:55:44.698Z,7.63
2019-03-17T03:58:12.278Z,5.80
2019-03-17T04:00:39.787Z,3.40
2019-03-17T04:03:19.045Z,3.77
2019-03-17T04:05:46.993Z,3.73
2019-03-17T04:08:14.979Z,3.87
2019-03-17T04:10:42.587Z,7.47
2019-03-17T04:13:10.515Z,5.23
2019-03-17T04:15:40.158Z,5.77
2019-03-17T04:18:07.754Z,4.20
2019-03-17T04:20:35.401Z,9.10
2019-03-17T04:23:03.267Z,6.00
2019-03-17T04:25:30.924Z,4.93
2019-03-17T04:27:58.498Z,6.97
2019-03-17T04:30:26.212Z,5.53
2019-03-17T04:32:53.837Z,10.37
2019-03-17T04:35:21.445Z,7.27
2019-03-17T04:37:49.083Z,10.03
2019-03-17T04:40:16.990Z,6.80
2019-03-17T04:42:45.193Z,6.87
2019-03-17T04:45:12.934Z,11.03
2019-03-17T04:47:48.987Z,9.40
2019-03-17T04:53:28.834Z,6.30
2019-03-17T04:55:56.443Z,10.83
2019-03-17T05:01:48.260Z,12.53
2019-03-17T05:04:15.859Z,7.83
2019-03-17T05:06:52.648Z,11.40
2019-03-17T05:09:12.910Z,10.10
2019-03-17T05:11:40.852Z,5.07
2019-03-17T05:14:37.533Z,5.70
2019-03-17T05:17:05.537Z,6.67
2019-03-17T05:19:44.879Z,8.00
2019-03-17T05:22:12.430Z,8.13
2019-03-17T05:24:40.144Z,6.23
2019-03-17T05:27:08.083Z,9.57
2019-03-17T05:29:36.904Z,6.87
2019-03-17T05:32:04.478Z,8.50
2019-03-17T05:34:31.966Z,7.80
2019-03-17T05:37:05.878Z,6.60
2019-03-17T05:39:29.241Z,4.30
2019-03-17T05:41:56.833Z,5.97
2019-03-17T05:44:26.879Z,5.47
2019-03-17T05:46:55.215Z,4.00
2019-03-17T05:49:23.073Z,5.37
2019-03-17T05:51:50.634Z,5.30
2019-03-17T05:54:18.540Z,6.83
2019-03-17T05:56:46.168Z,6.20
2019-03-17T05:59:13.734Z,5.43
2019-03-17T06:01:43.335Z,5.70
2019-03-17T06:04:11.309Z,4.03
2019-03-17T06:06:38.906Z,4.60
2019-03-17T06:09:06.930Z,2.03
2019-03-17T06:11:34.584Z,3.60
2019-03-17T06:14:02.159Z,6.27
2019-03-17T06:16:30.115Z,4.20
2019-03-17T06:18:57.777Z,7.00
2019-03-17T06:21:25.306Z,10.37
2019-03-17T06:23:52.784Z,4.23
2019-03-17T06:26:20.767Z,6.03
2019-03-17T06:28:48.337Z,7.83
2019-03-17T06:31:16.240Z,7.07
2019-03-17T06:33:43.915Z,3.07
2019-03-17T06:36:11.539Z,10.17
2019-03-17T06:38:39.114Z,5.67
2019-03-17T06:41:06.810Z,4.33
2019-03-17T06:43:34.698Z,4.47
2019-03-17T06:46:02.310Z,8.17
2019-03-17T06:48:30.520Z,2.03
2019-03-17T06:50:58.054Z,4.50
2019-03-17T06:53:25.945Z,4.83
2019-03-17T06:55:53.548Z,3.23
2019-03-17T06:58:21.677Z,6.10
2019-03-17T07:00:49.374Z,1.33
2019-03-17T07:03:17.015Z,1.83
2019-03-17T07:05:44.642Z,2.57
2019-03-17T07:08:12.348Z,1.47
2019-03-17T07:10:40.294Z,2.30
2019-03-17T07:13:08.253Z,3.33
2019-03-17T07:15:35.969Z,2.10
2019-03-17T07:18:03.627Z,3.40
2019-03-17T07:20:31.207Z,0.67
2019-03-17T07:22:59.131Z,2.63
2019-03-17T07:25:27.053Z,5.33
2019-03-17T07:27:54.661Z,2.53
2019-03-17T07:30:22.264Z,5.73
2019-03-17T07:32:49.944Z,10.77
2019-03-17T07:35:17.582Z,4.67
2019-03-17T07:37:56.092Z,9.87
2019-03-17T07:40:14.988Z,4.47
2019-03-17T07:42:42.587Z,8.33
2019-03-17T07:45:10.364Z,3.70
2019-03-17T07:47:37.967Z,4.13
2019-03-17T07:50:06.484Z,5.10
2019-03-17T07:52:34.655Z,2.10
2019-03-17T07:55:02.497Z,2.97
2019-03-17T07:57:30.110Z,3.90
2019-03-17T07:59:57.668Z,4.13
2019-03-17T08:02:27.339Z,3.73
2019-03-17T08:04:55.755Z,1.43
2019-03-17T08:07:23.400Z,2.93
2019-03-17T08:09:51.946Z,4.20
2019-03-17T08:12:19.598Z,4.03
2019-03-17T08:14:47.181Z,3.97
2019-03-17T08:17:15.835Z,3.67
2019-03-17T08:19:44.053Z,2.90
2019-03-17T08:22:11.620Z,1.73
2019-03-17T08:24:39.246Z,2.80
2019-03-17T08:27:06.935Z,4.00
2019-03-17T08:29:34.946Z,4.27
2019-03-17T08:32:02.726Z,4.80
2019-03-17T08:34:31.239Z,1.53
2019-03-17T08:36:59.182Z,2.10
2019-03-17T08:39:26.765Z,1.80
2019-03-17T08:41:54.393Z,2.77
2019-03-17T08:47:31.484Z,1.60
2019-03-17T08:49:59.443Z,2.37
2019-03-17T08:52:27.005Z,1.13
2019-03-17T08:54:54.601Z,1.63
2019-03-17T08:57:22.248Z,2.93
2019-03-17T08:59:49.842Z,1.30
2019-03-17T09:02:17.419Z,3.93
2019-03-17T09:04:45.022Z,2.10
2019-03-17T09:07:12.694Z,1.73
2019-03-17T09:09:40.562Z,0.67
2019-03-17T09:12:08.309Z,2.70
2019-03-17T09:14:35.893Z,3.43
2019-03-17T09:17:13.764Z,3.50
2019-03-17T09:19:33.427Z,5.03
2019-03-17T09:22:01.350Z,4.07
2019-03-17T09:24:48.810Z,2.97
2019-03-17T09:27:16.381Z,1.93
2019-03-17T09:29:44.338Z,4.20
2019-03-17T09:32:12.015Z,1.90
2019-03-17T09:34:39.979Z,1.93
2019-03-17T09:37:20.704Z,2.27
2019-03-17T09:39:48.632Z,2.33
2019-03-17T09:42:16.515Z,2.93
2019-03-17T09:44:44.169Z,2.77
2019-03-17T09:47:11.880Z,2.77
2019-03-17T09:49:39.853Z,2.93
2019-03-17T09:52:07.440Z,1.43
2019-03-17T09:54:54.769Z,0.70
2019-03-17T09:57:22.689Z,5.60
2019-03-17T09:59:53.614Z,0.97
2019-03-17T10:02:21.492Z,2.57
2019-03-17T10:04:49.132Z,1.27
2019-03-17T10:07:16.729Z,1.00
2019-03-17T10:09:44.350Z,1.93
2019-03-17T10:12:11.963Z,1.50
2019-03-17T10:14:39.871Z,2.33
2019-03-17T10:17:07.484Z,3.07
2019-03-17T10:19:35.473Z,3.20
2019-03-17T10:22:03.109Z,1.60
2019-03-17T10:24:31.102Z,1.90
2019-03-17T10:26:58.706Z,1.57
2019-03-17T10:29:26.295Z,1.77
2019-03-17T10:31:53.922Z,2.47
2019-03-17T10:34:21.596Z,1.97
2019-03-17T10:36:50.684Z,3.83
2019-03-17T10:39:18.308Z,0.30
2019-03-17T10:41:46.745Z,0.57
2019-03-17T10:44:14.249Z,3.03
2019-03-17T10:46:42.250Z,2.27
2019-03-17T10:49:10.314Z,0.47
2019-03-17T10:51:37.986Z,0.60
2019-03-17T10:54:05.609Z,1.07
2019-03-17T10:56:33.230Z,2.13
2019-03-17T10:59:01.203Z,2.63
2019-03-17T11:01:28.794Z,2.30
2019-03-17T11:03:56.358Z,2.50
2019-03-17T11:06:23.954Z,3.03
2019-03-17T11:08:51.484Z,1.57
2019-03-17T11:11:19.683Z,1.43
2019-03-17T11:13:47.788Z,1.20
2019-03-17T11:16:21.457Z,3.00
2019-03-17T11:18:49.438Z,2.67
2019-03-17T11:21:17.078Z,2.13
2019-03-17T11:23:44.642Z,2.00
2019-03-17T11:26:13.372Z,1.53
2019-03-17T11:28:41.291Z,3.37
2019-03-17T11:31:08.826Z,3.77
2019-03-17T11:33:36.587Z,3.43
2019-03-17T11:36:04.203Z,1.70
2019-03-17T11:38:31.817Z,4.87
2019-03-17T11:40:59.493Z,5.90
2019-03-17T11:43:27.063Z,2.93
2019-03-17T11:45:54.598Z,1.97
2019-03-17T11:48:22.788Z,2.03
2019-03-17T11:50:50.466Z,0.80
2019-03-17T11:53:18.421Z,1.23
2019-03-17T11:55:46.367Z,0.97
2019-03-17T11:58:13.953Z,3.07
2019-03-17T12:00:41.734Z,4.43
2019-03-17T12:03:09.346Z,2.00
2019-03-17T12:05:36.899Z,1.50
2019-03-17T12:08:04.464Z,2.10
2019-03-17T12:10:32.025Z,0.83
2019-03-17T12:12:59.663Z,0.77
2019-03-17T12:15:27.770Z,1.13
2019-03-17T12:17:55.641Z,1.97
2019-03-17T12:20:23.239Z,0.70
2019-03-17T12:22:51.158Z,0.80
2019-03-17T12:25:18.661Z,1.90
2019-03-17T12:27:46.222Z,4.47
2019-03-17T12:30:22.982Z,2.57
2019-03-17T12:32:50.569Z,2.07
2019-03-17T12:35:18.195Z,2.83
2019-03-17T12:37:46.342Z,0.60
2019-03-17T12:40:13.940Z,1.50
2019-03-17T12:42:41.702Z,1.90
2019-03-17T12:45:09.238Z,1.33
2019-03-17T12:47:37.523Z,3.10
2019-03-17T12:50:05.551Z,1.33
2019-03-17T12:52:33.093Z,0.47
2019-03-17T12:55:00.925Z,2.57
2019-03-17T12:57:28.500Z,0.83
2019-03-17T12:59:56.375Z,1.97
2019-03-17T13:02:23.968Z,2.10
2019-03-17T13:04:51.850Z,0.87
2019-03-17T13:07:20.508Z,1.97
2019-03-17T13:09:48.205Z,1.40
2019-03-17T13:12:16.063Z,2.07
2019-03-17T13:14:43.607Z,1.43
2019-03-17T13:17:11.492Z,1.10
2019-03-17T13:19:39.040Z,1.30
2019-03-17T13:22:06.609Z,1.13
2019-03-17T13:24:34.179Z,1.60
2019-03-17T13:27:02.132Z,3.10
2019-03-17T13:29:30.050Z,1.80
2019-03-17T13:32:00.907Z,1.53
2019-03-17T13:34:28.793Z,0.60
2019-03-17T13:36:56.364Z,2.10
2019-03-17T13:39:23.885Z,5.03
2019-03-17T13:41:52.076Z,2.40
2019-03-17T13:44:19.611Z,1.47
2019-03-17T13:46:47.209Z,3.33
2019-03-17T13:49:15.113Z,1.07
2019-03-17T13:51:42.694Z,2.90
2019-03-17T13:54:10.270Z,3.20
2019-03-17T13:56:37.807Z,0.90
2019-03-17T13:59:06.580Z,2.20
2019-03-17T14:01:34.248Z,0.33
2019-03-17T14:04:02.164Z,1.50
2019-03-17T14:06:29.620Z,1.77
2019-03-17T14:08:57.327Z,2.63
2019-03-17T14:11:24.909Z,2.43
2019-03-17T14:13:53.329Z,1.80
2019-03-17T14:16:20.925Z,1.80
2019-03-17T14:18:48.540Z,0.73
2019-03-17T14:21:16.118Z,2.20
2019-03-17T14:23:44.097Z,2.60
2019-03-17T14:26:11.759Z,1.57
2019-03-17T14:28:39.400Z,3.23
2019-03-17T14:31:07.031Z,1.97
2019-03-17T14:33:34.632Z,1.27
2019-03-17T14:36:02.246Z,3.27
2019-03-17T14:38:31.343Z,1.27
2019-03-17T14:40:59.148Z,1.10
2019-03-17T14:43:26.891Z,2.53
2019-03-17T14:45:54.883Z,0.40
2019-03-17T14:48:22.531Z,1.17
2019-03-17T14:50:50.202Z,1.33
2019-03-17T14:53:18.177Z,2.23
2019-03-17T14:55:46.014Z,2.97
2019-03-17T14:58:13.618Z,0.50
2019-03-17T15:00:41.422Z,0.40
2019-03-17T15:03:09.051Z,0.40
2019-03-17T15:05:36.643Z,0.33
2019-03-17T15:08:04.219Z,1.70
2019-03-17T15:10:31.829Z,0.87
2019-03-17T15:12:59.763Z,1.07
2019-03-17T15:15:27.435Z,0.60
2019-03-17T15:17:55.384Z,0.50
2019-03-17T15:20:22.951Z,0.47
2019-03-17T15:22:50.514Z,1.03
2019-03-17T15:25:18.146Z,0.37
2019-03-17T15:27:46.039Z,0.77
2019-03-17T15:30:14.661Z,1.60
2019-03-17T15:32:42.591Z,0.87
2019-03-17T15:35:10.376Z,2.13
2019-03-17T15:37:37.980Z,2.00
2019-03-17T15:40:06.001Z,2.40
2019-03-17T15:42:33.868Z,0.63
2019-03-17T15:45:01.421Z,1.33
2019-03-17T15:47:29.032Z,1.63
2019-03-17T15:49:56.670Z,0.17
2019-03-17T15:52:24.643Z,4.20
2019-03-17T15:54:52.297Z,2.20
2019-03-17T15:57:20.199Z,1.23
2019-03-17T15:59:49.135Z,1.10
2019-03-17T16:02:16.951Z,2.73
2019-03-17T16:04:44.911Z,1.07
2019-03-17T16:07:12.818Z,1.47
2019-03-17T16:09:40.822Z,1.07
2019-03-17T16:12:08.446Z,0.40
2019-03-17T16:14:36.080Z,0.97
2019-03-17T16:17:03.698Z,0.70
2019-03-17T16:19:31.350Z,0.20
2019-03-17T16:21:59.501Z,1.50
2019-03-17T16:24:26.993Z,1.80
2019-03-17T16:26:54.574Z,2.30
2019-03-17T16:29:22.202Z,2.20
2019-03-17T16:31:49.850Z,0.57
2019-03-17T16:34:17.467Z,2.77
2019-03-17T16:36:46.311Z,1.57
2019-03-17T16:39:13.953Z,1.87
2019-03-17T16:41:43.786Z,1.73
2019-03-17T16:44:11.314Z,1.30
2019-03-17T16:46:38.912Z,0.77
2019-03-17T16:49:06.540Z,0.83
2019-03-17T16:51:34.897Z,0.93
2019-03-17T16:54:03.973Z,2.43
2019-03-17T16:56:37.382Z,1.70
2019-03-17T16:59:04.996Z,1.90
2019-03-17T17:01:32.627Z,0.63
2019-03-17T17:04:00.258Z,2.47
2019-03-17T17:06:28.271Z,1.77
2019-03-17T17:08:55.923Z,1.90
2019-03-17T17:11:23.515Z,1.17
2019-03-17T17:13:51.173Z,2.60
2019-03-17T17:16:19.132Z,0.60
2019-03-17T17:18:47.076Z,2.27
2019-03-17T17:21:15.018Z,2.07
2019-03-17T17:23:42.618Z,2.37
2019-03-17T17:26:10.268Z,2.50
2019-03-17T17:28:37.911Z,1.97
2019-03-17T17:31:05.590Z,2.13
2019-03-17T17:33:33.183Z,0.40
2019-03-17T17:36:00.827Z,0.50
2019-03-17T17:38:28.479Z,2.57
2019-03-17T17:40:56.535Z,1.97
2019-03-17T17:43:24.144Z,0.83
2019-03-17T17:45:51.763Z,1.77
2019-03-17T17:48:19.387Z,1.23
2019-03-17T17:50:47.302Z,4.47
2019-03-17T17:53:15.180Z,2.40
2019-03-17T17:55:43.127Z,4.13
2019-03-17T17:58:10.901Z,2.37
2019-03-17T18:00:40.355Z,1.33
2019-03-17T18:03:07.999Z,2.67
2019-03-17T18:05:35.653Z,0.93
2019-03-17T18:08:03.558Z,4.03
2019-03-17T18:10:31.488Z,5.13
2019-03-17T18:12:59.167Z,2.57
2019-03-17T18:15:26.838Z,3.00
2019-03-17T18:17:54.735Z,3.00
2019-03-17T18:20:22.352Z,3.92
2019-03-17T18:22:50.098Z,4.07
2019-03-17T18:25:17.743Z,5.33
2019-03-17T18:27:45.481Z,7.20
2019-03-17T18:30:13.805Z,5.97
2019-03-17T18:32:41.392Z,7.50
2019-03-17T18:35:09.111Z,4.07
2019-03-17T18:37:36.671Z,3.83
2019-03-17T18:40:04.437Z,6.47
2019-03-17T18:42:33.445Z,4.23
2019-03-17T18:45:01.438Z,5.97
2019-03-17T18:47:29.040Z,6.00
2019-03-17T18:49:56.660Z,3.60
2019-03-17T18:52:24.639Z,4.47
2019-03-17T18:54:52.331Z,3.30
2019-03-17T18:57:19.970Z,2.63
2019-03-17T18:59:47.553Z,3.30
2019-03-17T19:02:15.153Z,3.27
2019-03-17T19:04:42.703Z,3.83
2019-03-17T19:07:10.666Z,3.53
2019-03-17T19:09:38.270Z,5.50
2019-03-17T19:12:06.268Z,3.33
2019-03-17T19:14:33.880Z,5.73
2019-03-17T19:17:01.619Z,5.03
2019-03-17T19:19:29.209Z,5.43
2019-03-17T19:21:56.817Z,7.10
2019-03-17T19:24:24.771Z,3.83
2019-03-17T19:26:52.859Z,6.60
2019-03-17T19:29:20.402Z,4.23
2019-03-17T19:31:48.029Z,3.67
2019-03-17T19:34:15.656Z,9.60
2019-03-17T19:36:43.586Z,4.57
2019-03-17T19:39:11.231Z,7.33
2019-03-17T19:41:38.824Z,4.17
2019-03-17T19:44:06.505Z,4.50
2019-03-17T19:46:34.188Z,2.57
2019-03-17T19:49:02.117Z,4.90
2019-03-17T19:51:32.322Z,3.27
2019-03-17T19:53:59.176Z,1.50
2019-03-17T19:56:26.800Z,1.20
2019-03-17T19:58:54.389Z,1.30
2019-03-17T20:01:22.054Z,3.80
2019-03-17T20:03:49.725Z,4.83
2019-03-17T20:06:18.407Z,1.27
2019-03-17T20:08:45.963Z,2.77
2019-03-17T20:11:13.603Z,2.33
2019-03-17T20:13:47.196Z,1.97
2019-03-17T20:16:14.825Z,0.77
2019-03-17T20:18:42.827Z,0.77
2019-03-17T20:21:10.816Z,4.53
2019-03-17T20:23:38.723Z,2.37
2019-03-17T20:26:06.339Z,2.10
2019-03-17T20:31:35.943Z,3.10
2019-03-17T20:34:03.591Z,0.50
2019-03-17T20:36:31.212Z,1.37
2019-03-17T20:39:04.448Z,2.50
2019-03-17T20:41:32.084Z,3.90
2019-03-17T20:43:59.674Z,2.37
2019-03-17T20:46:28.523Z,2.90
2019-03-17T20:48:56.219Z,2.77
2019-03-17T20:51:24.113Z,5.83
2019-03-17T20:53:51.711Z,4.90
2019-03-17T20:56:19.353Z,1.90
2019-03-17T20:58:46.945Z,1.87
2019-03-17T21:01:18.284Z,2.17
2019-03-17T21:03:45.876Z,6.17
2019-03-17T21:06:13.713Z,4.03
2019-03-17T21:09:07.361Z,2.73
2019-03-17T21:11:35.005Z,3.37
2019-03-17T21:14:11.790Z,2.47
2019-03-17T21:16:39.730Z,4.63
2019-03-17T21:19:07.735Z,3.30
2019-03-17T21:21:35.364Z,5.23
2019-03-17T21:24:03.387Z,2.17
2019-03-17T21:26:31.194Z,3.17
2019-03-17T21:29:01.094Z,2.83
2019-03-17T21:31:29.299Z,2.97
2019-03-17T21:33:56.937Z,5.37
2019-03-17T21:36:24.763Z,7.10
2019-03-17T21:38:52.453Z,3.07
2019-03-17T21:41:20.055Z,4.03
2019-03-17T21:43:59.663Z,6.33
2019-03-17T21:46:24.892Z,3.03
2019-03-17T21:49:12.656Z,7.67
2019-03-17T21:51:51.580Z,6.80
2019-03-17T21:54:33.598Z,5.90
2019-03-17T21:57:01.215Z,8.07
2019-03-17T21:59:35.407Z,6.90
2019-03-17T22:02:13.189Z,9.70
2019-03-17T22:04:39.644Z,8.83
2019-03-17T22:07:48.924Z,6.20
2019-03-17T22:10:06.586Z,6.20
2019-03-17T22:12:35.349Z,5.10
2019-03-17T22:15:03.559Z,6.90
2019-03-17T22:17:31.150Z,7.07
2019-03-17T22:20:08.708Z,8.17
2019-03-17T22:22:36.749Z,6.03
2019-03-17T22:25:05.503Z,9.27
2019-03-17T22:30:51.644Z,6.27
2019-03-17T22:33:53.938Z,13.67
2019-03-17T22:36:41.141Z,10.00
2019-03-17T22:39:11.423Z,9.60
2019-03-17T22:41:43.694Z,7.33
2019-03-17T22:44:23.597Z,5.63
2019-03-17T22:46:40.998Z,5.83
2019-03-17T22:49:08.565Z,5.03
2019-03-17T22:51:36.395Z,7.40
2019-03-17T22:54:04.262Z,7.27
2019-03-17T22:56:32.092Z,6.77
2019-03-17T22:58:59.845Z,5.50
2019-03-17T23:01:27.347Z,7.13
2019-03-17T23:03:54.940Z,7.20
2019-03-17T23:06:22.620Z,4.87
2019-03-17T23:08:50.186Z,7.13
2019-03-17T23:11:22.512Z,4.93
2019-03-17T23:13:49.983Z,3.60
2019-03-17T23:16:20.786Z,4.97
2019-03-17T23:22:12.167Z,5.30
2019-03-17T23:27:40.213Z,4.60
2019-03-17T23:30:08.261Z,4.87
2019-03-17T23:32:35.810Z,7.43
2019-03-17T23:35:05.865Z,4.27
2019-03-17T23:37:33.425Z,5.40
2019-03-17T23:40:01.000Z,3.07
2019-03-17T23:42:28.968Z,7.37
2019-03-17T23:44:56.583Z,4.93
2019-03-17T23:47:24.236Z,5.30
2019-03-17T23:49:51.809Z,7.10
2019-03-17T23:52:19.384Z,7.23
2019-03-17T23:54:47.300Z,7.10
2019-03-17T23:57:14.730Z,4.20
2019-03-17T23:59:42.207Z,4.10
